PWSweather.com
Personal Weather Stations
Station Observations
DEKREUPEL
Wsv De Kreupel, AndijkNL 1619 JV

Wsv De KreupelAndijkNL 1619 JV

Lat: 52.7417364, Lon: 5.1809356

Elevation: 33

Station Type: Rainwise MKiii LR

Latest ConditionsUpdated 12:54:00 PM GMT+01:01 Tuesday, Aug 21, 2018
Currently Today's Max Today's Min Today's Average
Temperature 73.7°F23.2°C 73.7°F23.2°C 65.2°F18.4°C 68.1°F20.1°C
Dew Point 103.4°F39.7°C 103.4°F39.7°C 93.7°F34.3°C 97.0°F36.1°C
Winds 8.7 mph S14.0 kmh S 8.8 mph -14.2 kmh - - 1.9 mph 3.1 kmh
Wind Gusts 12.0 mph19.3 kmh 16.2 mph26.1 kmh - -
Humidity - - - -
Pressure 30.24 in1024.0 mb 30.27 in1025.1 mb 30.24 in1024.0 mb -
Hour Temp Dew Point Humidity Winds Wind Gusts Pressure Precip Precip Rate Daily Precip Total
12:54 PM 73.7°F23.2°C 103.4°F39.7°C - 8.7 mph S14.0 kmh S 12.0 mph19.3 kmh 30.24 in1024.0 mb 0.00 in0.0 mm 0.00 in0.0 mm 0.00 in0.0 mm
12:49 PM 73.7°F23.2°C 103.3°F39.6°C - 7.0 mph S11.3 kmh S 9.8 mph15.8 kmh 30.24 in1024.0 mb 0.00 in0.0 mm 0.00 in0.0 mm 0.00 in0.0 mm
12:44 PM 73.7°F23.2°C 103.4°F39.7°C - 7.7 mph S12.4 kmh S 10.8 mph17.4 kmh 30.24 in1024.0 mb 0.00 in0.0 mm 0.00 in0.0 mm 0.00 in0.0 mm
12:39 PM 73.7°F23.2°C 103.4°F39.7°C - 6.4 mph S10.3 kmh S 9.5 mph15.3 kmh 30.24 in1024.0 mb 0.00 in0.0 mm 0.00 in0.0 mm 0.00 in0.0 mm
12:34 PM 73.4°F23.0°C 103.1°F39.5°C - 5.7 mph SSE9.2 kmh SSE 9.2 mph14.8 kmh 30.24 in1024.0 mb 0.00 in0.0 mm 0.00 in0.0 mm 0.00 in0.0 mm
12:29 PM 73.1°F22.8°C 102.6°F39.2°C - 7.4 mph SSE11.9 kmh SSE 10.4 mph16.7 kmh 30.24 in1024.0 mb 0.00 in0.0 mm 0.00 in0.0 mm 0.00 in0.0 mm
12:24 PM 73.0°F22.8°C 102.6°F39.2°C - 6.4 mph SSE10.3 kmh SSE 9.2 mph14.8 kmh 30.24 in1024.0 mb 0.00 in0.0 mm 0.00 in0.0 mm 0.00 in0.0 mm
12:19 PM 73.0°F22.8°C 102.6°F39.2°C - 3.9 mph S6.3 kmh S 8.6 mph13.8 kmh 30.24 in1024.0 mb 0.00 in0.0 mm 0.00 in0.0 mm 0.00 in0.0 mm
12:14 PM 72.9°F22.7°C 102.5°F39.2°C - 6.9 mph S11.1 kmh S 9.5 mph15.3 kmh 30.24 in1024.0 mb 0.00 in0.0 mm 0.00 in0.0 mm 0.00 in0.0 mm
12:09 PM 72.6°F22.6°C 102.0°F38.9°C - 7.3 mph S11.7 kmh S 11.5 mph18.5 kmh 30.25 in1024.4 mb 0.00 in0.0 mm 0.00 in0.0 mm 0.00 in0.0 mm
12:04 PM 72.5°F22.5°C 102.0°F38.9°C - 5.7 mph S9.2 kmh S 8.6 mph13.8 kmh 30.25 in1024.4 mb 0.00 in0.0 mm 0.00 in0.0 mm 0.00 in0.0 mm
11:59 AM 72.2°F22.3°C 101.7°F38.7°C - 5.6 mph SE9.0 kmh SE 9.4 mph15.1 kmh 30.25 in1024.4 mb 0.00 in0.0 mm 0.00 in0.0 mm 0.00 in0.0 mm
11:54 AM 72.0°F22.2°C 101.5°F38.6°C - 4.4 mph SE7.1 kmh SE 8.8 mph14.2 kmh 30.25 in1024.4 mb 0.00 in0.0 mm 0.00 in0.0 mm 0.00 in0.0 mm
11:49 AM 72.0°F22.2°C 101.3°F38.5°C - 7.4 mph SE11.9 kmh SE 13.1 mph21.1 kmh 30.25 in1024.4 mb 0.00 in0.0 mm 0.00 in0.0 mm 0.00 in0.0 mm
11:44 AM 72.0°F22.2°C 101.3°F38.5°C - 6.1 mph SSE9.8 kmh SSE 8.4 mph13.5 kmh 30.25 in1024.4 mb 0.00 in0.0 mm 0.00 in0.0 mm 0.00 in0.0 mm
11:39 AM 71.8°F22.1°C 101.2°F38.4°C - 6.8 mph SSE10.9 kmh SSE 9.1 mph14.6 kmh 30.25 in1024.4 mb 0.00 in0.0 mm 0.00 in0.0 mm 0.00 in0.0 mm
11:34 AM 71.7°F22.1°C 101.1°F38.4°C - 6.0 mph SSE9.7 kmh SSE 8.3 mph13.4 kmh 30.25 in1024.4 mb 0.00 in0.0 mm 0.00 in0.0 mm 0.00 in0.0 mm
11:29 AM 71.7°F22.1°C 101.0°F38.3°C - 7.0 mph SSE11.3 kmh SSE 11.3 mph18.2 kmh 30.25 in1024.4 mb 0.00 in0.0 mm 0.00 in0.0 mm 0.00 in0.0 mm
11:24 AM 71.9°F22.2°C 101.4°F38.6°C - 3.2 mph S5.1 kmh S 7.0 mph11.3 kmh 30.25 in1024.4 mb 0.00 in0.0 mm 0.00 in0.0 mm 0.00 in0.0 mm
11:19 AM 71.7°F22.1°C 101.1°F38.4°C - 5.3 mph SSE8.5 kmh SSE 8.6 mph13.8 kmh 30.25 in1024.4 mb 0.00 in0.0 mm 0.00 in0.0 mm 0.00 in0.0 mm
11:14 AM 71.7°F22.1°C 101.1°F38.4°C - 7.1 mph SE11.4 kmh SE 11.3 mph18.2 kmh 30.25 in1024.4 mb 0.00 in0.0 mm 0.00 in0.0 mm 0.00 in0.0 mm
11:09 AM 71.7°F22.1°C 101.1°F38.4°C - 5.0 mph SSE8.0 kmh SSE 7.8 mph12.6 kmh 30.25 in1024.4 mb 0.00 in0.0 mm 0.00 in0.0 mm 0.00 in0.0 mm
11:04 AM 71.7°F22.1°C 101.0°F38.3°C - 1.1 mph SSE1.8 kmh SSE 6.2 mph10.0 kmh 30.25 in1024.4 mb 0.00 in0.0 mm 0.00 in0.0 mm 0.00 in0.0 mm
10:59 AM 71.8°F22.1°C 101.2°F38.4°C - 7.2 mph SE11.6 kmh SE 13.7 mph22.0 kmh 30.25 in1024.4 mb 0.00 in0.0 mm 0.00 in0.0 mm 0.00 in0.0 mm
10:54 AM 71.7°F22.1°C 101.1°F38.4°C - 5.5 mph SE8.9 kmh SE 9.9 mph15.9 kmh 30.25 in1024.4 mb 0.00 in0.0 mm 0.00 in0.0 mm 0.00 in0.0 mm
10:49 AM 71.7°F22.1°C 101.0°F38.3°C - 6.5 mph S10.5 kmh S 9.6 mph15.4 kmh 30.25 in1024.4 mb 0.00 in0.0 mm 0.00 in0.0 mm 0.00 in0.0 mm
10:44 AM 71.5°F21.9°C 100.9°F38.3°C - 5.2 mph SE8.4 kmh SE 8.3 mph13.4 kmh 30.26 in1024.7 mb 0.00 in0.0 mm 0.00 in0.0 mm 0.00 in0.0 mm
10:39 AM 71.3°F21.8°C 100.6°F38.1°C - 3.9 mph S6.3 kmh S 6.6 mph10.6 kmh 30.26 in1024.7 mb 0.00 in0.0 mm 0.00 in0.0 mm 0.00 in0.0 mm
10:34 AM 71.0°F21.7°C 100.3°F37.9°C - 5.8 mph S9.3 kmh S 9.3 mph15.0 kmh 30.26 in1024.7 mb 0.00 in0.0 mm 0.00 in0.0 mm 0.00 in0.0 mm
10:29 AM 70.4°F21.3°C 99.7°F37.6°C - 4.7 mph S7.6 kmh S 7.5 mph12.1 kmh 30.26 in1024.7 mb 0.00 in0.0 mm 0.00 in0.0 mm 0.00 in0.0 mm
10:24 AM 70.0°F21.1°C 99.2°F37.3°C - 3.9 mph SSE6.3 kmh SSE 5.9 mph9.5 kmh 30.26 in1024.7 mb 0.00 in0.0 mm 0.00 in0.0 mm 0.00 in0.0 mm
10:19 AM 69.7°F20.9°C 98.9°F37.2°C - 4.6 mph SE7.4 kmh SE 7.0 mph11.3 kmh 30.26 in1024.7 mb 0.00 in0.0 mm 0.00 in0.0 mm 0.00 in0.0 mm
10:14 AM 69.9°F21.1°C 99.1°F37.3°C - 4.9 mph SE7.9 kmh SE 7.7 mph12.4 kmh 30.26 in1024.7 mb 0.00 in0.0 mm 0.00 in0.0 mm 0.00 in0.0 mm
10:09 AM 70.0°F21.1°C 99.1°F37.3°C - 5.6 mph ESE9.0 kmh ESE 8.3 mph13.4 kmh 30.26 in1024.7 mb 0.00 in0.0 mm 0.00 in0.0 mm 0.00 in0.0 mm
10:04 AM 70.0°F21.1°C 99.2°F37.3°C - 3.9 mph SE6.3 kmh SE 7.4 mph11.9 kmh 30.26 in1024.7 mb 0.00 in0.0 mm 0.00 in0.0 mm 0.00 in0.0 mm
09:59 AM 69.9°F21.1°C 99.1°F37.3°C - 5.2 mph SE8.4 kmh SE 8.0 mph12.9 kmh 30.26 in1024.7 mb 0.00 in0.0 mm 0.00 in0.0 mm 0.00 in0.0 mm
09:54 AM 70.2°F21.2°C 99.3°F37.4°C - 7.3 mph ESE11.7 kmh ESE 10.8 mph17.4 kmh 30.26 in1024.7 mb 0.00 in0.0 mm 0.00 in0.0 mm 0.00 in0.0 mm
09:49 AM 70.4°F21.3°C 99.5°F37.5°C - 6.2 mph ESE10.0 kmh ESE 10.6 mph17.1 kmh 30.25 in1024.4 mb 0.00 in0.0 mm 0.00 in0.0 mm 0.00 in0.0 mm
09:44 AM 70.2°F21.2°C 99.4°F37.4°C - 8.4 mph ESE13.5 kmh ESE 12.3 mph19.8 kmh 30.25 in1024.4 mb 0.00 in0.0 mm 0.00 in0.0 mm 0.00 in0.0 mm
09:39 AM 70.0°F21.1°C 99.2°F37.3°C - 5.7 mph SE9.2 kmh SE 9.8 mph15.8 kmh 30.25 in1024.4 mb 0.00 in0.0 mm 0.00 in0.0 mm 0.00 in0.0 mm
09:34 AM 70.0°F21.1°C 99.1°F37.3°C - 6.9 mph ESE11.1 kmh ESE 11.1 mph17.9 kmh 30.25 in1024.4 mb 0.00 in0.0 mm 0.00 in0.0 mm 0.00 in0.0 mm
09:29 AM 70.3°F21.3°C 99.4°F37.4°C - 8.8 mph SE14.2 kmh SE 16.2 mph26.1 kmh 30.25 in1024.4 mb 0.00 in0.0 mm 0.00 in0.0 mm 0.00 in0.0 mm
09:24 AM 70.2°F21.2°C 99.4°F37.4°C - 4.8 mph ESE7.7 kmh ESE 11.0 mph17.7 kmh 30.26 in1024.7 mb 0.00 in0.0 mm 0.00 in0.0 mm 0.00 in0.0 mm
09:19 AM 69.9°F21.1°C 99.1°F37.3°C - 0.7 mph ENE1.1 kmh ENE 4.2 mph6.8 kmh 30.26 in1024.7 mb 0.00 in0.0 mm 0.00 in0.0 mm 0.00 in0.0 mm
09:14 AM 69.9°F21.1°C 99.0°F37.2°C - 5.1 mph ENE8.2 kmh ENE 10.7 mph17.2 kmh 30.26 in1024.7 mb 0.00 in0.0 mm 0.00 in0.0 mm 0.00 in0.0 mm
09:09 AM 69.8°F21.0°C 98.9°F37.2°C - 3.4 mph ENE5.5 kmh ENE 9.2 mph14.8 kmh 30.26 in1024.7 mb 0.00 in0.0 mm 0.00 in0.0 mm 0.00 in0.0 mm
09:04 AM 69.7°F20.9°C 98.7°F37.1°C - 1.3 mph NE2.1 kmh NE 4.6 mph7.4 kmh 30.26 in1024.7 mb 0.00 in0.0 mm 0.00 in0.0 mm 0.00 in0.0 mm
08:59 AM 69.9°F21.1°C 99.1°F37.3°C - 5.6 mph ENE9.0 kmh ENE 11.2 mph18.0 kmh 30.26 in1024.7 mb 0.00 in0.0 mm 0.00 in0.0 mm 0.00 in0.0 mm
08:54 AM 70.0°F21.1°C 99.2°F37.3°C - 2.5 mph NE4.0 kmh NE 6.8 mph10.9 kmh 30.26 in1024.7 mb 0.00 in0.0 mm 0.00 in0.0 mm 0.00 in0.0 mm
08:49 AM 69.9°F21.1°C 99.0°F37.2°C - 0.8 mph ENE1.3 kmh ENE 3.1 mph5.0 kmh 30.26 in1024.7 mb 0.00 in0.0 mm 0.00 in0.0 mm 0.00 in0.0 mm
08:44 AM 69.4°F20.8°C 98.4°F36.9°C - 0.3 mph NE0.5 kmh NE 1.2 mph1.9 kmh 30.27 in1025.1 mb 0.00 in0.0 mm 0.00 in0.0 mm 0.00 in0.0 mm
08:39 AM 69.0°F20.6°C 98.1°F36.7°C - Calm Calm 0.6 mph1.0 kmh 30.26 in1024.7 mb 0.00 in0.0 mm 0.00 in0.0 mm 0.00 in0.0 mm
08:34 AM 68.7°F20.4°C 97.7°F36.5°C - 0.1 mph NE0.2 kmh NE 0.8 mph1.3 kmh 30.27 in1025.1 mb 0.00 in0.0 mm 0.00 in0.0 mm 0.00 in0.0 mm
08:29 AM 68.7°F20.4°C 97.6°F36.4°C - Calm Calm -- 30.27 in1025.1 mb 0.00 in0.0 mm 0.00 in0.0 mm 0.00 in0.0 mm
08:24 AM 68.5°F20.3°C 97.4°F36.3°C - 0.4 mph NE0.6 kmh NE 1.5 mph2.4 kmh 30.27 in1025.1 mb 0.00 in0.0 mm 0.00 in0.0 mm 0.00 in0.0 mm
08:19 AM 68.5°F20.3°C 97.5°F36.4°C - Calm Calm 0.3 mph0.5 kmh 30.26 in1024.7 mb 0.00 in0.0 mm 0.00 in0.0 mm 0.00 in0.0 mm
08:14 AM 68.4°F20.2°C 97.3°F36.3°C - Calm Calm 0.5 mph0.8 kmh 30.26 in1024.7 mb 0.00 in0.0 mm 0.00 in0.0 mm 0.00 in0.0 mm
08:09 AM 68.3°F20.2°C 97.2°F36.2°C - Calm Calm 0.7 mph1.1 kmh 30.26 in1024.7 mb 0.00 in0.0 mm 0.00 in0.0 mm 0.00 in0.0 mm
08:04 AM 68.2°F20.1°C 97.2°F36.2°C - Calm Calm -- 30.26 in1024.7 mb 0.00 in0.0 mm 0.00 in0.0 mm 0.00 in0.0 mm
07:59 AM 68.2°F20.1°C 97.1°F36.2°C - Calm Calm -- 30.26 in1024.7 mb 0.00 in0.0 mm 0.00 in0.0 mm 0.00 in0.0 mm
07:54 AM 68.0°F20.0°C 96.8°F36.0°C - Calm Calm -- 30.26 in1024.7 mb 0.00 in0.0 mm 0.00 in0.0 mm 0.00 in0.0 mm
07:49 AM 68.0°F20.0°C 97.0°F36.1°C - Calm Calm -- 30.26 in1024.7 mb 0.00 in0.0 mm 0.00 in0.0 mm 0.00 in0.0 mm
07:44 AM 68.0°F20.0°C 97.0°F36.1°C - Calm Calm -- 30.26 in1024.7 mb 0.00 in0.0 mm 0.00 in0.0 mm 0.00 in0.0 mm
07:39 AM 67.8°F19.9°C 96.6°F35.9°C - Calm Calm -- 30.26 in1024.7 mb 0.00 in0.0 mm 0.00 in0.0 mm 0.00 in0.0 mm
07:34 AM 67.7°F19.8°C 96.5°F35.8°C - Calm Calm -- 30.26 in1024.7 mb 0.00 in0.0 mm 0.00 in0.0 mm 0.00 in0.0 mm
07:29 AM 67.7°F19.8°C 96.5°F35.8°C - Calm Calm -- 30.26 in1024.7 mb 0.00 in0.0 mm 0.00 in0.0 mm 0.00 in0.0 mm
07:24 AM 67.7°F19.8°C 96.6°F35.9°C - Calm Calm -- 30.26 in1024.7 mb 0.00 in0.0 mm 0.00 in0.0 mm 0.00 in0.0 mm
07:19 AM 67.5°F19.7°C 96.3°F35.7°C - Calm Calm -- 30.26 in1024.7 mb 0.00 in0.0 mm 0.00 in0.0 mm 0.00 in0.0 mm
07:14 AM 67.4°F19.7°C 96.2°F35.7°C - Calm Calm -- 30.26 in1024.7 mb 0.00 in0.0 mm 0.00 in0.0 mm 0.00 in0.0 mm
07:09 AM 67.3°F19.6°C 96.0°F35.6°C - Calm Calm -- 30.26 in1024.7 mb 0.00 in0.0 mm 0.00 in0.0 mm 0.00 in0.0 mm
07:04 AM 67.2°F19.6°C 96.1°F35.6°C - Calm Calm -- 30.26 in1024.7 mb 0.00 in0.0 mm 0.00 in0.0 mm 0.00 in0.0 mm
06:59 AM 67.2°F19.6°C 96.1°F35.6°C - Calm Calm -- 30.26 in1024.7 mb 0.00 in0.0 mm 0.00 in0.0 mm 0.00 in0.0 mm
06:54 AM 67.0°F19.4°C 95.8°F35.4°C - Calm Calm -- 30.26 in1024.7 mb 0.00 in0.0 mm 0.00 in0.0 mm 0.00 in0.0 mm
06:49 AM 67.0°F19.4°C 95.8°F35.4°C - Calm Calm -- 30.26 in1024.7 mb 0.00 in0.0 mm 0.00 in0.0 mm 0.00 in0.0 mm
06:44 AM 66.9°F19.4°C 95.7°F35.4°C - Calm Calm -- 30.26 in1024.7 mb 0.00 in0.0 mm 0.00 in0.0 mm 0.00 in0.0 mm
06:39 AM 66.9°F19.4°C 95.7°F35.4°C - Calm Calm -- 30.26 in1024.7 mb 0.00 in0.0 mm 0.00 in0.0 mm 0.00 in0.0 mm
06:34 AM 66.7°F19.3°C 95.4°F35.2°C - Calm Calm -- 30.26 in1024.7 mb 0.00 in0.0 mm 0.00 in0.0 mm 0.00 in0.0 mm
06:29 AM 66.7°F19.3°C 95.5°F35.3°C - Calm Calm -- 30.25 in1024.4 mb 0.00 in0.0 mm 0.00 in0.0 mm 0.00 in0.0 mm
06:24 AM 66.7°F19.3°C 95.5°F35.3°C - Calm Calm -- 30.25 in1024.4 mb 0.00 in0.0 mm 0.00 in0.0 mm 0.00 in0.0 mm
06:19 AM 66.7°F19.3°C 95.4°F35.2°C - Calm Calm -- 30.25 in1024.4 mb 0.00 in0.0 mm 0.00 in0.0 mm 0.00 in0.0 mm
06:14 AM 66.5°F19.2°C 95.1°F35.1°C - Calm Calm -- 30.25 in1024.4 mb 0.00 in0.0 mm 0.00 in0.0 mm 0.00 in0.0 mm
06:09 AM 66.5°F19.2°C 95.1°F35.1°C - Calm Calm -- 30.25 in1024.4 mb 0.00 in0.0 mm 0.00 in0.0 mm 0.00 in0.0 mm
06:04 AM 66.5°F19.2°C 95.1°F35.1°C - Calm Calm -- 30.25 in1024.4 mb 0.00 in0.0 mm 0.00 in0.0 mm 0.00 in0.0 mm
05:59 AM 66.5°F19.2°C 95.3°F35.2°C - Calm Calm -- 30.25 in1024.4 mb 0.00 in0.0 mm 0.00 in0.0 mm 0.00 in0.0 mm
05:54 AM 66.4°F19.1°C 95.0°F35.0°C - Calm Calm -- 30.25 in1024.4 mb 0.00 in0.0 mm 0.00 in0.0 mm 0.00 in0.0 mm
05:49 AM 66.2°F19.0°C 94.9°F34.9°C - Calm Calm -- 30.24 in1024.0 mb 0.00 in0.0 mm 0.00 in0.0 mm 0.00 in0.0 mm
05:44 AM 66.2°F19.0°C 94.8°F34.9°C - Calm Calm -- 30.24 in1024.0 mb 0.00 in0.0 mm 0.00 in0.0 mm 0.00 in0.0 mm
05:39 AM 66.4°F19.1°C 95.2°F35.1°C - Calm Calm -- 30.24 in1024.0 mb 0.00 in0.0 mm 0.00 in0.0 mm 0.00 in0.0 mm
05:34 AM 66.4°F19.1°C 95.2°F35.1°C - Calm Calm -- 30.24 in1024.0 mb 0.00 in0.0 mm 0.00 in0.0 mm 0.00 in0.0 mm
05:29 AM 66.4°F19.1°C 95.0°F35.0°C - Calm Calm -- 30.24 in1024.0 mb 0.00 in0.0 mm 0.00 in0.0 mm 0.00 in0.0 mm
05:24 AM 66.5°F19.2°C 95.3°F35.2°C - Calm Calm -- 30.24 in1024.0 mb 0.00 in0.0 mm 0.00 in0.0 mm 0.00 in0.0 mm
05:19 AM 66.5°F19.2°C 95.3°F35.2°C - Calm Calm 1.1 mph1.8 kmh 30.24 in1024.0 mb 0.00 in0.0 mm 0.00 in0.0 mm 0.00 in0.0 mm
05:14 AM 66.4°F19.1°C 95.2°F35.1°C - 0.2 mph NE0.3 kmh NE 1.8 mph2.9 kmh 30.24 in1024.0 mb 0.00 in0.0 mm 0.00 in0.0 mm 0.00 in0.0 mm
05:09 AM 66.4°F19.1°C 95.2°F35.1°C - 1.0 mph NNE1.6 kmh NNE 4.8 mph7.7 kmh 30.24 in1024.0 mb 0.00 in0.0 mm 0.00 in0.0 mm 0.00 in0.0 mm
05:04 AM 66.4°F19.1°C 95.2°F35.1°C - 1.3 mph NNE2.1 kmh NNE 5.0 mph8.0 kmh 30.24 in1024.0 mb 0.00 in0.0 mm 0.00 in0.0 mm 0.00 in0.0 mm
04:59 AM 66.3°F19.1°C 94.9°F34.9°C - Calm Calm -- 30.24 in1024.0 mb 0.00 in0.0 mm 0.00 in0.0 mm 0.00 in0.0 mm
04:54 AM 66.2°F19.0°C 94.8°F34.9°C - Calm Calm -- 30.24 in1024.0 mb 0.00 in0.0 mm 0.00 in0.0 mm 0.00 in0.0 mm
04:49 AM 66.4°F19.1°C 95.2°F35.1°C - Calm Calm -- 30.24 in1024.0 mb 0.00 in0.0 mm 0.00 in0.0 mm 0.00 in0.0 mm
04:44 AM 66.5°F19.2°C 95.3°F35.2°C - Calm Calm -- 30.25 in1024.4 mb 0.00 in0.0 mm 0.00 in0.0 mm 0.00 in0.0 mm
04:39 AM 66.5°F19.2°C 95.3°F35.2°C - Calm Calm -- 30.25 in1024.4 mb 0.00 in0.0 mm 0.00 in0.0 mm 0.00 in0.0 mm
04:34 AM 66.7°F19.3°C 95.4°F35.2°C - Calm Calm -- 30.25 in1024.4 mb 0.00 in0.0 mm 0.00 in0.0 mm 0.00 in0.0 mm
04:29 AM 66.7°F19.3°C 95.5°F35.3°C - Calm Calm -- 30.25 in1024.4 mb 0.00 in0.0 mm 0.00 in0.0 mm 0.00 in0.0 mm
04:24 AM 66.7°F19.3°C 95.4°F35.2°C - Calm Calm -- 30.25 in1024.4 mb 0.00 in0.0 mm 0.00 in0.0 mm 0.00 in0.0 mm
04:19 AM 66.7°F19.3°C 95.4°F35.2°C - Calm Calm 0.5 mph0.8 kmh 30.25 in1024.4 mb 0.00 in0.0 mm 0.00 in0.0 mm 0.00 in0.0 mm
04:14 AM 66.7°F19.3°C 95.5°F35.3°C - Calm Calm -- 30.25 in1024.4 mb 0.00 in0.0 mm 0.00 in0.0 mm 0.00 in0.0 mm
04:09 AM 66.7°F19.3°C 95.4°F35.2°C - Calm Calm -- 30.25 in1024.4 mb 0.00 in0.0 mm 0.00 in0.0 mm 0.00 in0.0 mm
04:04 AM 66.7°F19.3°C 95.5°F35.3°C - Calm Calm -- 30.25 in1024.4 mb 0.00 in0.0 mm 0.00 in0.0 mm 0.00 in0.0 mm
03:59 AM 66.7°F19.3°C 95.4°F35.2°C - Calm Calm -- 30.25 in1024.4 mb 0.00 in0.0 mm 0.00 in0.0 mm 0.00 in0.0 mm
03:54 AM 66.5°F19.2°C 95.3°F35.2°C - 1.0 mph NNE1.6 kmh NNE 2.6 mph4.2 kmh 30.25 in1024.4 mb 0.00 in0.0 mm 0.00 in0.0 mm 0.00 in0.0 mm
03:49 AM 66.5°F19.2°C 95.3°F35.2°C - 5.1 mph NNE8.2 kmh NNE 11.1 mph17.9 kmh 30.25 in1024.4 mb 0.00 in0.0 mm 0.00 in0.0 mm 0.00 in0.0 mm
03:44 AM 66.5°F19.2°C 95.3°F35.2°C - 0.4 mph NNE0.6 kmh NNE 1.2 mph1.9 kmh 30.25 in1024.4 mb 0.00 in0.0 mm 0.00 in0.0 mm 0.00 in0.0 mm
03:39 AM 66.5°F19.2°C 95.3°F35.2°C - Calm Calm -- 30.25 in1024.4 mb 0.00 in0.0 mm 0.00 in0.0 mm 0.00 in0.0 mm
03:34 AM 66.4°F19.1°C 95.0°F35.0°C - Calm Calm -- 30.25 in1024.4 mb 0.00 in0.0 mm 0.00 in0.0 mm 0.00 in0.0 mm
03:29 AM 66.2°F19.0°C 94.8°F34.9°C - Calm Calm 0.3 mph0.5 kmh 30.25 in1024.4 mb 0.00 in0.0 mm 0.00 in0.0 mm 0.00 in0.0 mm
03:24 AM 66.2°F19.0°C 94.9°F34.9°C - 0.8 mph NNE1.3 kmh NNE 2.2 mph3.5 kmh 30.25 in1024.4 mb 0.00 in0.0 mm 0.00 in0.0 mm 0.00 in0.0 mm
03:19 AM 66.0°F18.9°C 94.6°F34.8°C - 1.1 mph NNE1.8 kmh NNE 3.7 mph6.0 kmh 30.25 in1024.4 mb 0.00 in0.0 mm 0.00 in0.0 mm 0.00 in0.0 mm
03:14 AM 66.0°F18.9°C 94.7°F34.8°C - 0.3 mph N0.5 kmh N 0.9 mph1.4 kmh 30.25 in1024.4 mb 0.00 in0.0 mm 0.00 in0.0 mm 0.00 in0.0 mm
03:09 AM 66.0°F18.9°C 94.7°F34.8°C - Calm Calm -- 30.25 in1024.4 mb 0.00 in0.0 mm 0.00 in0.0 mm 0.00 in0.0 mm
03:04 AM 65.9°F18.8°C 94.5°F34.7°C - Calm Calm 0.6 mph1.0 kmh 30.25 in1024.4 mb 0.00 in0.0 mm 0.00 in0.0 mm 0.00 in0.0 mm
03:00 AM 65.9°F18.8°C 94.6°F34.8°C - Calm Calm 0.2 mph0.3 kmh 30.25 in1024.4 mb 0.00 in0.0 mm 0.00 in0.0 mm 0.00 in0.0 mm
02:54 AM 65.9°F18.8°C 94.6°F34.8°C - Calm Calm -- 30.25 in1024.4 mb 0.00 in0.0 mm 0.00 in0.0 mm 0.00 in0.0 mm
02:49 AM 66.0°F18.9°C 94.6°F34.8°C - 1.1 mph N1.8 kmh N 3.8 mph6.1 kmh 30.25 in1024.4 mb 0.00 in0.0 mm 0.00 in0.0 mm 0.00 in0.0 mm
02:44 AM 66.0°F18.9°C 94.6°F34.8°C - 1.0 mph NW1.6 kmh NW 2.1 mph3.4 kmh 30.25 in1024.4 mb 0.00 in0.0 mm 0.00 in0.0 mm 0.00 in0.0 mm
02:39 AM 65.9°F18.8°C 94.5°F34.7°C - Calm Calm -- 30.25 in1024.4 mb 0.00 in0.0 mm 0.00 in0.0 mm 0.00 in0.0 mm
02:34 AM 65.9°F18.8°C 94.6°F34.8°C - Calm Calm -- 30.25 in1024.4 mb 0.00 in0.0 mm 0.00 in0.0 mm 0.00 in0.0 mm
02:29 AM 65.9°F18.8°C 94.6°F34.8°C - Calm Calm -- 30.25 in1024.4 mb 0.00 in0.0 mm 0.00 in0.0 mm 0.00 in0.0 mm
02:24 AM 65.7°F18.7°C 94.4°F34.7°C - Calm Calm -- 30.25 in1024.4 mb 0.00 in0.0 mm 0.00 in0.0 mm 0.00 in0.0 mm
02:19 AM 65.7°F18.7°C 94.4°F34.7°C - Calm Calm -- 30.25 in1024.4 mb 0.00 in0.0 mm 0.00 in0.0 mm 0.00 in0.0 mm
02:14 AM 65.6°F18.7°C 94.3°F34.6°C - Calm Calm -- 30.25 in1024.4 mb 0.00 in0.0 mm 0.00 in0.0 mm 0.00 in0.0 mm
02:09 AM 65.5°F18.6°C 94.0°F34.4°C - Calm Calm -- 30.25 in1024.4 mb 0.00 in0.0 mm 0.00 in0.0 mm 0.00 in0.0 mm
02:04 AM 65.5°F18.6°C 94.0°F34.4°C - Calm Calm -- 30.25 in1024.4 mb 0.00 in0.0 mm 0.00 in0.0 mm 0.00 in0.0 mm
01:59 AM 65.5°F18.6°C 94.0°F34.4°C - Calm Calm -- 30.25 in1024.4 mb 0.00 in0.0 mm 0.00 in0.0 mm 0.00 in0.0 mm
01:54 AM 65.5°F18.6°C 94.0°F34.4°C - Calm Calm -- 30.25 in1024.4 mb 0.00 in0.0 mm 0.00 in0.0 mm 0.00 in0.0 mm
01:49 AM 65.5°F18.6°C 94.0°F34.4°C - Calm Calm -- 30.25 in1024.4 mb 0.00 in0.0 mm 0.00 in0.0 mm 0.00 in0.0 mm
01:44 AM 65.5°F18.6°C 94.1°F34.5°C - Calm Calm -- 30.25 in1024.4 mb 0.00 in0.0 mm 0.00 in0.0 mm 0.00 in0.0 mm
01:39 AM 65.5°F18.6°C 94.1°F34.5°C - Calm Calm -- 30.25 in1024.4 mb 0.00 in0.0 mm 0.00 in0.0 mm 0.00 in0.0 mm
01:34 AM 65.5°F18.6°C 94.0°F34.4°C - Calm Calm -- 30.25 in1024.4 mb 0.00 in0.0 mm 0.00 in0.0 mm 0.00 in0.0 mm
01:29 AM 65.5°F18.6°C 94.0°F34.4°C - Calm Calm -- 30.25 in1024.4 mb 0.00 in0.0 mm 0.00 in0.0 mm 0.00 in0.0 mm
01:24 AM 65.5°F18.6°C 94.0°F34.4°C - Calm Calm 0.3 mph0.5 kmh 30.25 in1024.4 mb 0.00 in0.0 mm 0.00 in0.0 mm 0.00 in0.0 mm
01:19 AM 65.5°F18.6°C 94.0°F34.4°C - Calm Calm -- 30.25 in1024.4 mb 0.00 in0.0 mm 0.00 in0.0 mm 0.00 in0.0 mm
01:14 AM 65.6°F18.7°C 94.1°F34.5°C - Calm Calm -- 30.25 in1024.4 mb 0.00 in0.0 mm 0.00 in0.0 mm 0.00 in0.0 mm
01:09 AM 65.7°F18.7°C 94.2°F34.6°C - Calm Calm -- 30.25 in1024.4 mb 0.00 in0.0 mm 0.00 in0.0 mm 0.00 in0.0 mm
01:04 AM 65.5°F18.6°C 94.1°F34.5°C - Calm Calm -- 30.25 in1024.4 mb 0.00 in0.0 mm 0.00 in0.0 mm 0.00 in0.0 mm
12:59 AM 65.5°F18.6°C 94.0°F34.4°C - Calm Calm -- 30.25 in1024.4 mb 0.00 in0.0 mm 0.00 in0.0 mm 0.00 in0.0 mm
12:54 AM 65.6°F18.7°C 94.3°F34.6°C - Calm Calm -- 30.25 in1024.4 mb 0.00 in0.0 mm 0.00 in0.0 mm 0.00 in0.0 mm
12:49 AM 65.5°F18.6°C 94.1°F34.5°C - Calm Calm -- 30.26 in1024.7 mb 0.00 in0.0 mm 0.00 in0.0 mm 0.00 in0.0 mm
12:44 AM 65.5°F18.6°C 94.0°F34.4°C - Calm Calm -- 30.26 in1024.7 mb 0.00 in0.0 mm 0.00 in0.0 mm 0.00 in0.0 mm
12:39 AM 65.5°F18.6°C 94.0°F34.4°C - Calm Calm -- 30.26 in1024.7 mb 0.00 in0.0 mm 0.00 in0.0 mm 0.00 in0.0 mm
12:34 AM 65.5°F18.6°C 94.1°F34.5°C - Calm Calm -- 30.26 in1024.7 mb 0.00 in0.0 mm 0.00 in0.0 mm 0.00 in0.0 mm
12:29 AM 65.5°F18.6°C 94.1°F34.5°C - Calm Calm -- 30.26 in1024.7 mb 0.00 in0.0 mm 0.00 in0.0 mm 0.00 in0.0 mm
12:24 AM 65.4°F18.6°C 94.0°F34.4°C - Calm Calm -- 30.26 in1024.7 mb 0.00 in0.0 mm 0.00 in0.0 mm 0.00 in0.0 mm
12:19 AM 65.2°F18.4°C 93.8°F34.3°C - Calm Calm -- 30.25 in1024.4 mb 0.00 in0.0 mm 0.00 in0.0 mm 0.00 in0.0 mm
12:14 AM 65.2°F18.4°C 93.8°F34.3°C - Calm Calm -- 30.25 in1024.4 mb 0.00 in0.0 mm 0.00 in0.0 mm 0.00 in0.0 mm
12:09 AM 65.2°F18.4°C 93.8°F34.3°C - 1.4 mph NNW2.3 kmh NNW 3.7 mph6.0 kmh 30.25 in1024.4 mb 0.00 in0.0 mm 0.00 in0.0 mm 0.00 in0.0 mm
12:04 AM 65.2°F18.4°C 93.7°F34.3°C - 0.2 mph NNW0.3 kmh NNW 1.0 mph1.6 kmh 30.25 in1024.4 mb 0.00 in0.0 mm 0.00 in0.0 mm 0.00 in0.0 mm